Terminal Aerodrome Forecast
Issued by NWS

Home | Current Version | Previous Version | Text Only | Print | Product List | Glossary On
Versions: 1 2 3 4 5 6 7 8 9 10 11 12 13 14 15 16 17 18 19 20 21 22 23 24 25 26 27 28 29 30 31 32 33 34 35 36 37 38 39 40 41 42 43 44 45 46 47
000
FTUS43 KMKX 011133
TAFENW
TAF
KENW 011133Z 0112/0212 27006KT P6SM SCT070 SCT250
     FM011400 29009G16KT P6SM SCT080
      TEMPO 0115/0119 BKN080
     FM011900 29009G17KT P6SM SCT080
     FM020100 25006KT P6SM SCT250
     FM021100 23010KT P6SM VCTS SCT050CB BKN100=

USA.gov is the U.S. government's official web portal to all federal, state and local government web resources and services.